createdAt,value
2023-05-09T00:01:20.773Z,23.83
2023-05-09T00:03:47.756Z,22.20
2023-05-09T00:06:15.635Z,22.27
2023-05-09T00:08:42.304Z,23.43
2023-05-09T00:11:09.040Z,27.93
2023-05-09T00:13:35.930Z,24.17
2023-05-09T00:16:03.675Z,21.70
2023-05-09T00:18:31.272Z,22.17
2023-05-09T00:20:58.089Z,23.07
2023-05-09T00:23:25.516Z,23.00
2023-05-09T00:25:52.922Z,21.87
2023-05-09T00:28:20.105Z,23.50
2023-05-09T00:30:47.598Z,25.60
2023-05-09T00:33:14.181Z,18.73
2023-05-09T00:35:40.984Z,17.63
2023-05-09T00:38:07.639Z,16.77
2023-05-09T00:40:34.263Z,21.23
2023-05-09T00:43:00.832Z,22.93
2023-05-09T00:45:28.787Z,18.43
2023-05-09T00:47:55.635Z,17.33
2023-05-09T00:50:22.280Z,21.40
2023-05-09T00:52:48.929Z,20.97
2023-05-09T00:55:16.250Z,21.30
2023-05-09T00:57:43.125Z,21.80
2023-05-09T01:00:13.499Z,20.07
2023-05-09T01:02:43.319Z,23.73
2023-05-09T01:05:10.193Z,20.33
2023-05-09T01:07:36.830Z,19.43
2023-05-09T01:10:09.808Z,18.93
2023-05-09T01:12:45.640Z,18.40
2023-05-09T01:15:13.804Z,22.27
2023-05-09T01:17:43.268Z,20.27
2023-05-09T01:20:11.162Z,23.37
2023-05-09T01:22:38.139Z,20.73
2023-05-09T01:25:14.495Z,19.73
2023-05-09T01:27:47.426Z,17.40
2023-05-09T01:30:14.139Z,20.47
2023-05-09T01:32:40.866Z,20.53
2023-05-09T01:35:07.764Z,18.57
2023-05-09T01:37:35.036Z,21.53
2023-05-09T01:40:09.453Z,20.67
2023-05-09T02:17:56.425Z,20.27
2023-05-09T02:20:24.259Z,16.60
2023-05-09T02:22:50.930Z,18.20
2023-05-09T02:25:19.934Z,20.20
2023-05-09T02:27:46.561Z,21.20
2023-05-09T02:30:17.616Z,20.87
2023-05-09T02:32:44.927Z,17.03
2023-05-09T02:35:12.677Z,19.87
2023-05-09T02:37:40.310Z,16.23
2023-05-09T02:40:09.153Z,18.67
2023-05-09T02:42:36.040Z,22.43
2023-05-09T02:45:02.682Z,29.73
2023-05-09T02:47:29.373Z,27.00
2023-05-09T02:49:57.861Z,28.80
2023-05-09T02:52:24.540Z,39.43
2023-05-09T02:54:51.290Z,39.73
2023-05-09T02:57:18.681Z,49.30
2023-05-09T02:59:45.662Z,37.03
2023-05-09T03:02:12.359Z,37.83
2023-05-09T03:04:39.113Z,26.23
2023-05-09T03:07:05.968Z,38.37
2023-05-09T03:09:33.563Z,32.73
2023-05-09T03:12:01.169Z,34.67
2023-05-09T03:14:27.916Z,23.57
2023-05-09T03:16:55.731Z,30.97
2023-05-09T03:19:30.949Z,37.83
2023-05-09T03:22:00.082Z,23.93
2023-05-09T03:24:31.091Z,29.73
2023-05-09T03:26:57.724Z,29.17
2023-05-09T03:29:24.530Z,29.10
2023-05-09T03:31:51.281Z,30.67
2023-05-09T03:34:18.086Z,26.23
2023-05-09T03:36:45.667Z,23.63
2023-05-09T03:39:14.390Z,26.97
2023-05-09T03:41:44.303Z,30.60
2023-05-09T03:44:12.286Z,27.97
2023-05-09T03:46:38.984Z,28.33
2023-05-09T03:49:06.059Z,24.47
2023-05-09T03:51:34.036Z,26.67
2023-05-09T03:54:02.674Z,27.10
2023-05-09T03:56:29.632Z,24.40
2023-05-09T03:58:56.338Z,30.83
2023-05-09T04:01:24.902Z,48.60
2023-05-09T04:03:52.350Z,55.30
2023-05-09T04:06:20.713Z,57.23
2023-05-09T04:08:47.998Z,40.33
2023-05-09T04:11:14.663Z,48.10
2023-05-09T04:13:44.429Z,37.27
2023-05-09T04:16:22.149Z,39.63
2023-05-09T04:18:49.265Z,33.10
2023-05-09T04:21:15.998Z,32.50
2023-05-09T04:23:46.486Z,34.93
2023-05-09T04:26:15.621Z,33.97
2023-05-09T04:28:45.111Z,30.17
2023-05-09T04:31:14.980Z,35.70
2023-05-09T04:33:45.317Z,29.47
2023-05-09T04:36:12.459Z,30.03
2023-05-09T04:38:39.287Z,28.20
2023-05-09T04:41:10.469Z,29.27
2023-05-09T04:43:37.179Z,26.67
2023-05-09T04:46:04.427Z,30.07
2023-05-09T04:48:32.649Z,26.73
2023-05-09T04:50:59.338Z,18.20
2023-05-09T04:53:29.183Z,24.20
2023-05-09T04:55:57.031Z,27.53
2023-05-09T04:58:26.587Z,22.50
2023-05-09T05:00:56.350Z,27.07
2023-05-09T05:03:23.182Z,25.47
2023-05-09T05:05:49.959Z,29.20
2023-05-09T05:08:17.127Z,32.83
2023-05-09T05:10:44.645Z,29.23
2023-05-09T05:13:13.509Z,32.97
2023-05-09T05:15:44.511Z,33.47
2023-05-09T05:18:12.243Z,28.90
2023-05-09T05:20:42.954Z,27.60
2023-05-09T05:23:09.696Z,26.23
2023-05-09T05:25:36.377Z,29.67
2023-05-09T05:28:04.094Z,29.10
2023-05-09T05:30:33.519Z,31.67
2023-05-09T05:33:07.051Z,29.50
2023-05-09T05:35:34.018Z,23.13
2023-05-09T05:38:01.048Z,27.67
2023-05-09T05:40:28.220Z,26.87
2023-05-09T05:42:56.190Z,23.13
2023-05-09T05:45:23.926Z,26.13
2023-05-09T05:47:54.619Z,30.45
2023-05-09T05:50:23.339Z,24.80
2023-05-09T05:52:50.231Z,32.47
2023-05-09T05:55:19.367Z,27.77
2023-05-09T05:57:47.940Z,36.77
2023-05-09T06:00:16.462Z,28.80
2023-05-09T06:02:52.119Z,14.87
2023-05-09T06:05:28.471Z,15.67
2023-05-09T06:07:55.511Z,13.30
2023-05-09T06:10:22.240Z,11.57
2023-05-09T06:12:49.080Z,12.60
2023-05-09T06:15:16.251Z,10.43
2023-05-09T06:17:46.316Z,10.93
2023-05-09T06:20:13.182Z,5.80
2023-05-09T06:22:39.856Z,7.00
2023-05-09T06:25:08.123Z,9.27
2023-05-09T06:27:36.996Z,9.10
2023-05-09T06:30:14.055Z,8.87
2023-05-09T06:32:51.860Z,10.07
2023-05-09T06:35:22.410Z,10.73
2023-05-09T06:37:49.453Z,8.33
2023-05-09T06:40:16.787Z,11.60
2023-05-09T06:42:43.674Z,10.10
2023-05-09T06:45:10.875Z,8.47
2023-05-09T06:47:37.646Z,12.53
2023-05-09T06:50:05.804Z,8.10
2023-05-09T06:52:32.682Z,7.20
2023-05-09T06:55:03.169Z,8.73
2023-05-09T06:57:30.103Z,8.80
2023-05-09T06:59:56.958Z,5.53
2023-05-09T07:02:23.701Z,6.20
2023-05-09T07:04:51.909Z,6.50
2023-05-09T07:07:23.546Z,4.50
2023-05-09T07:09:52.941Z,5.63
2023-05-09T07:12:22.267Z,5.73
2023-05-09T07:14:49.034Z,6.03
2023-05-09T07:17:23.596Z,7.80
2023-05-09T07:19:52.198Z,6.63
2023-05-09T07:22:19.336Z,5.60
2023-05-09T07:24:46.871Z,4.37
2023-05-09T07:27:13.934Z,6.23
2023-05-09T07:29:40.746Z,5.27
2023-05-09T07:32:07.542Z,6.87
2023-05-09T07:34:34.460Z,9.73
2023-05-09T07:37:01.257Z,15.63
2023-05-09T07:39:30.428Z,3.93
2023-05-09T07:41:57.181Z,6.37
2023-05-09T07:44:25.158Z,4.60
2023-05-09T07:46:52.622Z,6.43
2023-05-09T07:49:19.357Z,7.27
2023-05-09T07:51:46.130Z,6.60
2023-05-09T07:54:13.014Z,9.03
2023-05-09T07:56:39.962Z,5.37
2023-05-09T07:59:06.778Z,6.33
2023-05-09T08:01:33.524Z,5.40
2023-05-09T08:04:00.463Z,6.37
2023-05-09T08:06:28.711Z,9.30
2023-05-09T08:08:55.464Z,7.97
2023-05-09T08:11:22.189Z,7.10
2023-05-09T08:13:50.652Z,7.30
2023-05-09T08:16:17.687Z,9.10
2023-05-09T08:18:45.661Z,4.93
2023-05-09T08:21:13.533Z,8.53
2023-05-09T08:23:41.757Z,5.20
2023-05-09T08:26:08.541Z,6.90
2023-05-09T08:28:35.464Z,4.77
2023-05-09T08:31:02.371Z,6.57
2023-05-09T08:33:29.178Z,6.67
2023-05-09T08:35:56.551Z,7.57
2023-05-09T08:38:24.436Z,6.43
2023-05-09T08:40:51.207Z,7.90
2023-05-09T08:43:19.361Z,6.60
2023-05-09T08:45:49.388Z,6.47
2023-05-09T08:48:16.645Z,6.37
2023-05-09T08:50:48.315Z,5.97
2023-05-09T08:53:16.545Z,8.63
2023-05-09T08:55:43.402Z,7.33
2023-05-09T08:58:10.309Z,6.63
2023-05-09T09:00:37.291Z,6.73
2023-05-09T09:03:06.254Z,6.70
2023-05-09T09:05:41.807Z,5.27
2023-05-09T09:08:09.607Z,8.83
2023-05-09T09:10:36.405Z,5.80
2023-05-09T09:13:05.064Z,10.53
2023-05-09T09:15:34.661Z,6.10
2023-05-09T09:18:06.938Z,4.13
2023-05-09T09:20:34.917Z,7.70
2023-05-09T09:23:02.343Z,5.50
2023-05-09T09:25:32.304Z,7.53
2023-05-09T09:27:59.028Z,5.73
2023-05-09T09:30:26.381Z,5.20
2023-05-09T09:32:53.113Z,5.83
2023-05-09T09:35:20.586Z,5.67
2023-05-09T09:37:47.301Z,7.73
2023-05-09T09:40:14.812Z,6.93
2023-05-09T09:42:47.754Z,4.37
2023-05-09T09:45:16.645Z,4.13
2023-05-09T09:47:43.468Z,6.33
2023-05-09T09:50:12.153Z,7.40
2023-05-09T09:52:42.931Z,7.53
2023-05-09T09:55:09.731Z,6.17
2023-05-09T09:57:40.006Z,5.50
2023-05-09T10:00:07.993Z,4.73
2023-05-09T10:02:36.055Z,6.60
2023-05-09T10:05:11.100Z,13.73
2023-05-09T10:07:38.599Z,5.13
2023-05-09T10:10:06.335Z,4.73
2023-05-09T10:12:34.474Z,6.17
2023-05-09T10:15:02.185Z,9.10
2023-05-09T10:17:29.017Z,6.97
2023-05-09T10:19:56.090Z,7.00
2023-05-09T10:22:22.857Z,9.27
2023-05-09T10:25:22.363Z,10.53
2023-05-09T10:27:49.176Z,5.87
2023-05-09T10:30:22.332Z,5.27
2023-05-09T10:32:58.582Z,5.23
2023-05-09T10:35:26.859Z,3.93
2023-05-09T10:37:56.143Z,6.77
2023-05-09T10:40:23.829Z,3.53
2023-05-09T10:42:50.508Z,7.40
2023-05-09T10:45:17.703Z,6.63
2023-05-09T10:47:44.691Z,5.20
2023-05-09T10:50:12.655Z,4.87
2023-05-09T10:52:59.329Z,7.50
2023-05-09T10:55:35.104Z,3.87
2023-05-09T10:58:10.049Z,4.93
2023-05-09T11:00:40.805Z,5.43
2023-05-09T11:03:10.410Z,4.63
2023-05-09T11:05:40.337Z,6.13
2023-05-09T11:08:27.378Z,7.83
2023-05-09T11:10:54.758Z,4.57
2023-05-09T11:13:24.067Z,10.43
2023-05-09T11:15:56.104Z,6.57
2023-05-09T11:18:23.214Z,2.80
2023-05-09T11:20:51.465Z,5.37
2023-05-09T11:23:23.153Z,5.70
2023-05-09T11:25:49.901Z,5.10
2023-05-09T11:28:41.274Z,3.63
2023-05-09T11:31:09.285Z,7.47
2023-05-09T11:33:36.205Z,3.67
2023-05-09T11:36:26.464Z,3.67
2023-05-09T11:39:06.674Z,7.40
2023-05-09T11:41:41.513Z,12.70
2023-05-09T11:44:18.081Z,10.40
2023-05-09T11:46:45.329Z,7.60
2023-05-09T11:49:12.471Z,5.20
2023-05-09T11:51:39.287Z,4.37
2023-05-09T11:54:08.479Z,2.63
2023-05-09T11:56:35.547Z,4.90
2023-05-09T11:59:02.315Z,7.50
2023-05-09T12:01:29.669Z,4.70
2023-05-09T12:03:56.426Z,3.93
2023-05-09T12:06:30.175Z,3.50
2023-05-09T12:08:59.862Z,5.53
2023-05-09T12:11:26.584Z,3.27
2023-05-09T12:13:53.526Z,8.50
2023-05-09T12:16:20.318Z,6.87
2023-05-09T12:18:50.354Z,5.07
2023-05-09T12:21:22.254Z,4.47
2023-05-09T12:23:51.249Z,55.23
2023-05-09T12:26:19.107Z,37.20
2023-05-09T12:28:45.897Z,6.23
2023-05-09T12:31:13.082Z,4.87
2023-05-09T12:33:40.084Z,6.40
2023-05-09T12:36:11.498Z,6.70
2023-05-09T12:38:38.589Z,5.37
2023-05-09T12:41:06.703Z,5.57
2023-05-09T12:43:37.893Z,4.50
2023-05-09T12:46:04.983Z,6.17
2023-05-09T12:48:35.402Z,3.93
2023-05-09T12:51:02.833Z,7.40
2023-05-09T12:53:31.830Z,4.50
2023-05-09T12:56:04.870Z,4.97
2023-05-09T12:58:32.099Z,4.27
2023-05-09T13:00:59.253Z,3.30
2023-05-09T13:03:31.289Z,6.33
2023-05-09T13:06:01.434Z,2.93
2023-05-09T13:08:28.478Z,3.57
2023-05-09T13:11:03.941Z,6.40
2023-05-09T13:13:35.035Z,4.67
2023-05-09T13:16:03.757Z,5.13
2023-05-09T13:18:30.548Z,6.67
2023-05-09T13:20:57.221Z,11.17
2023-05-09T13:23:23.986Z,8.50
2023-05-09T13:25:50.575Z,7.40
2023-05-09T13:28:17.164Z,4.20
2023-05-09T13:30:45.823Z,8.83
2023-05-09T13:33:24.568Z,8.60
2023-05-09T13:35:54.427Z,5.33
2023-05-09T13:38:21.039Z,2.93
2023-05-09T13:40:47.674Z,6.67
2023-05-09T13:43:14.696Z,3.70
2023-05-09T13:45:41.426Z,4.30
2023-05-09T13:48:08.215Z,3.50
2023-05-09T13:50:35.964Z,3.87
2023-05-09T13:53:03.535Z,3.87
2023-05-09T13:55:30.981Z,4.20
2023-05-09T13:57:57.807Z,4.93
2023-05-09T14:00:27.235Z,6.53
2023-05-09T14:02:53.994Z,7.10
2023-05-09T14:05:20.777Z,3.90
2023-05-09T14:07:47.648Z,4.13
2023-05-09T14:10:14.354Z,3.63
2023-05-09T14:12:44.335Z,4.57
2023-05-09T14:15:11.320Z,3.07
2023-05-09T14:17:38.090Z,3.90
2023-05-09T14:20:06.236Z,6.33
2023-05-09T14:22:32.833Z,4.10
2023-05-09T14:24:59.555Z,4.77
2023-05-09T14:27:26.506Z,3.17
2023-05-09T14:29:53.503Z,5.10
2023-05-09T14:32:20.103Z,3.23
2023-05-09T14:34:49.683Z,5.40
2023-05-09T14:37:16.439Z,3.90
2023-05-09T14:39:45.312Z,5.13
2023-05-09T14:42:14.250Z,4.90
2023-05-09T14:44:41.391Z,5.50
2023-05-09T14:47:08.721Z,3.77
2023-05-09T14:49:37.554Z,3.70
2023-05-09T14:52:04.180Z,17.27
2023-05-09T14:54:31.020Z,6.03
2023-05-09T14:56:59.554Z,3.67
2023-05-09T14:59:26.235Z,5.57
2023-05-09T15:01:52.932Z,3.67
2023-05-09T15:04:19.652Z,5.50
2023-05-09T15:06:46.418Z,5.20
2023-05-09T15:09:13.198Z,6.40
2023-05-09T15:11:47.704Z,5.00
2023-05-09T15:14:16.703Z,6.43
2023-05-09T15:16:44.366Z,5.57
2023-05-09T15:19:11.522Z,3.70
2023-05-09T15:21:38.211Z,4.30
2023-05-09T15:24:05.030Z,3.50
2023-05-09T15:26:32.339Z,8.97
2023-05-09T15:28:59.887Z,3.27
2023-05-09T15:31:26.802Z,5.07
2023-05-09T15:33:53.976Z,4.03
2023-05-09T15:36:20.672Z,13.40
2023-05-09T15:38:49.726Z,4.43
2023-05-09T15:41:16.960Z,3.33
2023-05-09T15:43:43.790Z,3.73
2023-05-09T15:46:10.690Z,7.43
2023-05-09T15:48:37.532Z,3.23
2023-05-09T15:51:04.320Z,5.23
2023-05-09T15:53:31.947Z,4.47
2023-05-09T15:55:58.547Z,15.30
2023-05-09T15:58:25.294Z,7.83
2023-05-09T16:00:52.069Z,2.93
2023-05-09T16:03:18.957Z,2.77
2023-05-09T16:05:45.703Z,3.90
2023-05-09T16:08:13.482Z,3.30
2023-05-09T16:10:40.874Z,5.57
2023-05-09T16:13:07.963Z,3.90
2023-05-09T16:15:35.308Z,5.87
2023-05-09T16:18:02.247Z,3.73
2023-05-09T16:20:28.998Z,6.47
2023-05-09T16:22:55.772Z,12.37
2023-05-09T16:25:23.001Z,3.53
2023-05-09T16:27:49.736Z,3.83
2023-05-09T16:30:16.886Z,7.53
2023-05-09T16:32:44.858Z,5.60
2023-05-09T16:35:11.558Z,4.47
2023-05-09T16:37:38.718Z,4.30
2023-05-09T16:40:05.744Z,3.37
2023-05-09T16:42:32.796Z,5.50
2023-05-09T16:44:59.480Z,4.10
2023-05-09T16:47:27.847Z,3.70
2023-05-09T16:49:54.673Z,4.97
2023-05-09T16:52:23.255Z,3.60
2023-05-09T16:54:50.602Z,5.27
2023-05-09T16:57:17.440Z,5.00
2023-05-09T16:59:45.414Z,6.90
2023-05-09T17:02:12.279Z,3.80
2023-05-09T17:04:39.102Z,3.63
2023-05-09T17:07:06.022Z,6.00
2023-05-09T17:09:32.889Z,6.20
2023-05-09T17:12:00.729Z,3.80
2023-05-09T17:14:28.972Z,4.83
2023-05-09T17:16:55.850Z,3.90
2023-05-09T17:19:23.744Z,4.50
2023-05-09T17:21:50.825Z,3.37
2023-05-09T17:24:17.980Z,3.90
2023-05-09T17:26:46.670Z,6.37
2023-05-09T17:29:13.826Z,4.30
2023-05-09T17:31:41.533Z,5.20
2023-05-09T17:34:08.431Z,4.20
2023-05-09T17:36:37.690Z,5.23
2023-05-09T17:39:04.962Z,6.53
2023-05-09T17:41:31.685Z,3.93
2023-05-09T17:43:58.375Z,4.00
2023-05-09T17:46:25.370Z,6.13
2023-05-09T17:48:52.161Z,5.57
2023-05-09T17:51:18.901Z,5.33
2023-05-09T17:53:45.694Z,6.83
2023-05-09T17:56:13.221Z,7.33
2023-05-09T17:58:40.436Z,3.90
2023-05-09T18:01:07.265Z,10.00
2023-05-09T18:03:34.151Z,5.80
2023-05-09T18:06:03.666Z,3.87
2023-05-09T18:08:32.105Z,8.17
2023-05-09T18:10:58.971Z,5.60
2023-05-09T18:13:27.090Z,4.33
2023-05-09T18:15:59.380Z,6.73
2023-05-09T18:18:33.581Z,10.23
2023-05-09T18:21:03.296Z,5.57
2023-05-09T18:23:30.617Z,8.47
2023-05-09T18:25:59.715Z,6.33
2023-05-09T18:28:30.765Z,7.70
2023-05-09T18:30:58.574Z,5.77
2023-05-09T18:33:25.721Z,6.43
2023-05-09T18:35:53.112Z,8.40
2023-05-09T18:38:20.150Z,4.83
2023-05-09T18:40:47.428Z,6.73
2023-05-09T18:43:14.559Z,7.97
2023-05-09T18:45:45.601Z,9.87
2023-05-09T18:48:13.826Z,8.73
2023-05-09T18:50:42.022Z,7.33
2023-05-09T18:53:09.368Z,8.10
2023-05-09T18:55:37.616Z,9.20
2023-05-09T18:58:04.419Z,6.10
2023-05-09T19:00:31.149Z,8.80
2023-05-09T19:02:59.276Z,19.23
2023-05-09T19:05:26.167Z,14.93
2023-05-09T19:07:54.096Z,10.13
2023-05-09T19:10:21.188Z,10.93
2023-05-09T19:12:49.281Z,9.10
2023-05-09T19:15:16.214Z,11.03
2023-05-09T19:17:44.011Z,8.80
2023-05-09T19:20:11.146Z,10.70
2023-05-09T19:22:41.126Z,10.20
2023-05-09T19:25:08.252Z,10.63
2023-05-09T19:27:35.929Z,12.30
2023-05-09T19:30:05.333Z,14.40
2023-05-09T19:32:33.115Z,15.03
2023-05-09T19:34:59.852Z,17.23
2023-05-09T19:37:26.959Z,13.67
2023-05-09T19:39:53.733Z,19.37
2023-05-09T19:42:21.707Z,14.97
2023-05-09T19:44:49.321Z,12.67
2023-05-09T19:47:15.994Z,14.63
2023-05-09T19:49:43.174Z,10.67
2023-05-09T19:52:11.968Z,9.53
2023-05-09T19:54:38.915Z,9.33
2023-05-09T19:57:07.125Z,12.77
2023-05-09T19:59:34.324Z,17.67
2023-05-09T20:02:02.667Z,24.00
2023-05-09T20:04:36.431Z,52.67
2023-05-09T20:07:06.669Z,56.03
2023-05-09T20:09:35.884Z,66.60
2023-05-09T20:12:03.883Z,44.00
2023-05-09T20:14:31.855Z,38.93
2023-05-09T20:16:58.872Z,37.97
2023-05-09T20:19:25.638Z,37.77
2023-05-09T20:21:54.176Z,20.43
2023-05-09T20:24:21.021Z,17.03
2023-05-09T20:26:48.115Z,18.43
2023-05-09T20:29:17.733Z,10.53
2023-05-09T20:31:48.854Z,8.47
2023-05-09T20:34:18.924Z,10.00
2023-05-09T20:36:46.971Z,14.47
2023-05-09T20:39:17.925Z,8.03
2023-05-09T20:41:45.926Z,7.80
2023-05-09T20:44:13.393Z,9.13
2023-05-09T20:46:43.481Z,10.53
2023-05-09T20:49:11.359Z,9.43
2023-05-09T20:51:38.572Z,11.17
2023-05-09T20:54:06.494Z,9.77
2023-05-09T20:56:43.092Z,10.77
2023-05-09T20:59:10.671Z,10.60
2023-05-09T21:01:37.552Z,7.67
2023-05-09T21:04:05.983Z,8.23
2023-05-09T21:06:33.295Z,13.40
2023-05-09T21:09:00.882Z,13.30
2023-05-09T21:11:28.482Z,8.00
2023-05-09T21:13:55.245Z,9.10
2023-05-09T21:16:22.154Z,10.63
2023-05-09T21:18:48.955Z,10.00
2023-05-09T21:21:15.646Z,9.00
2023-05-09T21:23:42.268Z,8.27
2023-05-09T21:26:09.153Z,10.30
2023-05-09T21:28:35.808Z,7.83
2023-05-09T21:31:02.507Z,8.60
2023-05-09T21:33:29.621Z,7.03
2023-05-09T21:35:56.290Z,7.77
2023-05-09T21:38:23.028Z,7.63
2023-05-09T21:40:50.089Z,6.60
2023-05-09T21:43:18.261Z,6.80
2023-05-09T21:45:45.435Z,7.93
2023-05-09T21:48:13.355Z,7.20
2023-05-09T21:50:40.148Z,7.23
2023-05-09T21:53:06.787Z,8.23
2023-05-09T21:55:34.260Z,7.23
2023-05-09T21:58:01.129Z,6.60
2023-05-09T22:00:27.906Z,4.70
2023-05-09T22:02:55.916Z,7.93
2023-05-09T22:05:23.882Z,7.00
2023-05-09T22:07:51.293Z,6.07
2023-05-09T22:10:18.121Z,6.20
2023-05-09T22:12:46.372Z,4.50
2023-05-09T22:15:15.686Z,6.07
2023-05-09T22:17:42.633Z,5.27
2023-05-09T22:20:09.606Z,5.83
2023-05-09T22:22:36.826Z,6.13
2023-05-09T22:25:04.563Z,9.63
2023-05-09T22:27:31.706Z,5.63
2023-05-09T22:29:58.471Z,9.97
2023-05-09T22:32:25.864Z,6.00
2023-05-09T22:34:54.139Z,13.13
2023-05-09T22:37:20.830Z,4.90
2023-05-09T22:39:47.531Z,9.57
2023-05-09T22:42:14.236Z,7.90
2023-05-09T22:44:41.014Z,5.33
2023-05-09T22:47:08.509Z,4.73
2023-05-09T22:49:35.702Z,4.73
2023-05-09T22:52:02.636Z,5.80
2023-05-09T22:54:29.374Z,6.13
2023-05-09T22:56:56.766Z,5.57
2023-05-09T22:59:23.802Z,8.60
2023-05-09T23:01:51.032Z,6.43
2023-05-09T23:04:17.638Z,4.70
2023-05-09T23:06:44.295Z,4.33
2023-05-09T23:09:11.091Z,5.30
2023-05-09T23:11:37.946Z,5.47
2023-05-09T23:14:04.741Z,5.07
2023-05-09T23:16:31.818Z,6.90
2023-05-09T23:18:58.553Z,6.27
2023-05-09T23:21:25.142Z,6.10
2023-05-09T23:23:51.781Z,5.37
2023-05-09T23:26:19.292Z,4.47
2023-05-09T23:28:46.019Z,5.53
2023-05-09T23:31:12.757Z,5.67
2023-05-09T23:33:39.897Z,5.60
2023-05-09T23:36:06.873Z,7.47
2023-05-09T23:38:33.492Z,5.13
2023-05-09T23:41:01.162Z,6.70
2023-05-09T23:43:27.955Z,5.77
2023-05-09T23:45:58.421Z,5.53
2023-05-09T23:48:25.839Z,6.47
2023-05-09T23:50:52.571Z,6.20
2023-05-09T23:53:21.044Z,5.07
2023-05-09T23:55:47.653Z,5.67
2023-05-09T23:58:14.309Z,5.87
